Terminal Aerodrome Forecast
Issued by NWS Wilmington, OH

Current Version | Previous Version | Text Only | Print | Product List | Glossary Off
Versions: 1 2 3 4 5 6 7 8 9 10 11 12 13 14 15 16 17 18 19 20 21 22 23 24 25 26 27 28 29

000
FTUS41 KILN 301741
TAFILN
TAF
KILN 301741Z 3018/0118 24012KT P6SM BKN035
      TEMPO 3018/3020 BKN018
     FM302200 26010KT P6SM SCT080
     FM010300 25008KT P6SM OVC025
     FM011500 25012G20KT P6SM BKN025=

USA.gov is the U.S. government's official web portal to all federal, state and local government web resources and services.